createdAt,value
2022-11-22T00:00:16.544Z,934.76
2022-11-22T00:01:16.506Z,934.76
2022-11-22T00:02:16.580Z,934.81
2022-11-22T00:03:16.514Z,934.79
2022-11-22T00:04:16.479Z,934.74
2022-11-22T00:05:16.458Z,934.76
2022-11-22T00:06:16.485Z,934.70
2022-11-22T00:07:16.487Z,934.69
2022-11-22T00:08:16.425Z,934.67
2022-11-22T00:09:16.444Z,934.65
2022-11-22T00:10:16.409Z,934.72
2022-11-22T00:11:16.427Z,934.75
2022-11-22T00:12:16.371Z,934.76
2022-11-22T00:13:16.354Z,934.81
2022-11-22T00:14:16.380Z,934.83
2022-11-22T00:15:16.348Z,934.82
2022-11-22T00:16:16.317Z,934.83
2022-11-22T00:17:16.383Z,934.83
2022-11-22T00:18:16.336Z,934.74
2022-11-22T00:19:16.298Z,934.70
2022-11-22T00:20:16.269Z,934.74
2022-11-22T00:21:16.250Z,934.64
2022-11-22T00:22:16.257Z,934.70
2022-11-22T00:23:16.220Z,934.71
2022-11-22T00:24:16.249Z,934.72
2022-11-22T00:25:16.200Z,934.71
2022-11-22T00:26:16.189Z,934.70
2022-11-22T00:27:16.171Z,934.71
2022-11-22T00:28:16.172Z,934.72
2022-11-22T00:29:16.160Z,934.68
2022-11-22T00:30:16.133Z,934.73
2022-11-22T00:31:16.127Z,934.59
2022-11-22T00:32:16.112Z,934.62
2022-11-22T00:33:16.109Z,934.65
2022-11-22T00:34:16.091Z,934.64
2022-11-22T00:35:16.069Z,934.60
2022-11-22T00:36:16.067Z,934.60
2022-11-22T00:37:16.033Z,934.53
2022-11-22T00:38:16.050Z,934.56
2022-11-22T00:39:16.010Z,934.56
2022-11-22T00:40:15.999Z,934.53
2022-11-22T00:41:15.991Z,934.54
2022-11-22T00:42:15.989Z,934.58
2022-11-22T00:43:15.989Z,934.58
2022-11-22T00:44:15.954Z,934.58
2022-11-22T00:45:15.940Z,934.58
2022-11-22T00:46:15.922Z,934.55
2022-11-22T00:47:15.931Z,934.59
2022-11-22T00:48:15.900Z,934.60
2022-11-22T00:49:15.913Z,934.65
2022-11-22T00:50:15.881Z,934.62
2022-11-22T00:51:15.849Z,934.69
2022-11-22T00:52:15.848Z,934.65
2022-11-22T00:53:15.825Z,934.67
2022-11-22T00:54:15.851Z,934.69
2022-11-22T00:55:15.864Z,934.67
2022-11-22T00:56:15.837Z,934.67
2022-11-22T00:57:15.784Z,934.65
2022-11-22T00:58:15.805Z,934.67
2022-11-22T00:59:15.747Z,934.66
2022-11-22T01:00:15.745Z,934.63
2022-11-22T01:01:15.786Z,934.65
2022-11-22T01:02:15.730Z,934.71
2022-11-22T01:03:15.722Z,934.77
2022-11-22T01:04:15.734Z,934.77
2022-11-22T01:05:15.669Z,934.76
2022-11-22T01:06:15.693Z,934.75
2022-11-22T01:07:15.760Z,934.74
2022-11-22T01:08:15.637Z,934.70
2022-11-22T01:09:15.614Z,934.68
2022-11-22T01:10:15.614Z,934.70
2022-11-22T01:11:15.591Z,934.72
2022-11-22T01:12:15.623Z,934.69
2022-11-22T01:13:15.583Z,934.74
2022-11-22T01:14:15.582Z,934.71
2022-11-22T01:15:15.543Z,934.71
2022-11-22T01:16:15.534Z,934.72
2022-11-22T01:17:15.546Z,934.74
2022-11-22T01:18:15.525Z,934.79
2022-11-22T01:19:15.482Z,934.78
2022-11-22T01:20:15.493Z,934.79
2022-11-22T01:21:15.457Z,934.80
2022-11-22T01:22:15.487Z,934.78
2022-11-22T01:23:15.435Z,934.78
2022-11-22T01:24:15.436Z,934.73
2022-11-22T01:25:15.411Z,934.82
2022-11-22T01:26:15.402Z,934.73
2022-11-22T01:27:15.377Z,934.75
2022-11-22T01:28:15.402Z,934.75
2022-11-22T01:29:15.360Z,934.79
2022-11-22T01:30:15.352Z,934.76
2022-11-22T01:31:15.326Z,934.67
2022-11-22T01:32:15.349Z,934.69
2022-11-22T01:33:15.461Z,934.69
2022-11-22T01:34:15.300Z,934.71
2022-11-22T01:35:15.279Z,934.66
2022-11-22T01:36:15.286Z,934.68
2022-11-22T01:37:15.246Z,934.67
2022-11-22T01:38:15.319Z,934.69
2022-11-22T01:39:15.246Z,934.69
2022-11-22T01:40:15.220Z,934.63
2022-11-22T01:41:15.226Z,934.60
2022-11-22T01:42:15.194Z,934.56
2022-11-22T01:43:15.177Z,934.59
2022-11-22T01:44:15.169Z,934.60
2022-11-22T01:45:15.153Z,934.64
2022-11-22T01:46:15.181Z,934.57
2022-11-22T01:47:15.121Z,934.64
2022-11-22T01:48:15.110Z,934.59
2022-11-22T01:49:15.114Z,934.52
2022-11-22T01:50:15.091Z,934.58
2022-11-22T01:51:15.096Z,934.70
2022-11-22T01:52:15.090Z,934.69
2022-11-22T01:53:15.156Z,934.67
2022-11-22T01:54:15.037Z,934.74
2022-11-22T01:55:15.014Z,934.79
2022-11-22T01:56:15.033Z,934.81
2022-11-22T01:57:15.008Z,934.84
2022-11-22T01:58:14.987Z,934.86
2022-11-22T01:59:14.957Z,934.90
2022-11-22T02:00:14.976Z,934.93
2022-11-22T02:01:14.962Z,934.97
2022-11-22T02:02:14.956Z,935.03
2022-11-22T02:03:14.932Z,935.05
2022-11-22T02:04:14.903Z,935.03
2022-11-22T02:05:14.883Z,935.01
2022-11-22T02:06:14.877Z,935.03
2022-11-22T02:07:14.913Z,935.04
2022-11-22T02:08:14.873Z,935.03
2022-11-22T02:09:14.830Z,935.05
2022-11-22T02:10:14.824Z,935.09
2022-11-22T02:11:14.801Z,935.07
2022-11-22T02:12:14.799Z,935.11
2022-11-22T02:13:14.804Z,935.06
2022-11-22T02:14:14.775Z,935.06
2022-11-22T02:15:14.756Z,935.03
2022-11-22T02:16:14.754Z,935.03
2022-11-22T02:17:14.731Z,935.04
2022-11-22T02:18:14.750Z,935.08
2022-11-22T02:19:14.728Z,935.11
2022-11-22T02:20:14.680Z,935.06
2022-11-22T02:21:14.674Z,935.06
2022-11-22T02:22:14.675Z,935.05
2022-11-22T02:23:14.663Z,934.99
2022-11-22T02:24:14.676Z,935.01
2022-11-22T02:25:14.624Z,935.02
2022-11-22T02:26:14.625Z,935.02
2022-11-22T02:27:14.640Z,934.97
2022-11-22T02:28:14.585Z,934.95
2022-11-22T02:29:14.596Z,934.95
2022-11-22T02:30:14.557Z,934.94
2022-11-22T02:31:14.559Z,934.93
2022-11-22T02:32:14.541Z,934.97
2022-11-22T02:33:14.516Z,934.95
2022-11-22T02:34:14.539Z,934.96
2022-11-22T02:35:14.488Z,934.95
2022-11-22T02:36:14.524Z,934.97
2022-11-22T02:37:14.470Z,935.04
2022-11-22T02:38:14.467Z,935.01
2022-11-22T02:39:14.435Z,934.99
2022-11-22T02:40:14.459Z,934.99
2022-11-22T02:41:14.438Z,934.95
2022-11-22T02:42:14.407Z,934.98
2022-11-22T02:43:14.388Z,934.96
2022-11-22T02:44:14.377Z,934.90
2022-11-22T02:45:14.379Z,934.92
2022-11-22T02:46:14.382Z,934.93
2022-11-22T02:47:14.329Z,934.94
2022-11-22T02:48:14.319Z,934.94
2022-11-22T02:49:14.323Z,934.89
2022-11-22T02:50:14.307Z,934.89
2022-11-22T02:51:14.285Z,934.89
2022-11-22T02:52:14.300Z,934.85
2022-11-22T02:53:14.254Z,934.90
2022-11-22T02:54:14.252Z,934.90
2022-11-22T02:55:14.227Z,934.89
2022-11-22T02:56:14.227Z,934.90
2022-11-22T02:57:14.241Z,934.84
2022-11-22T02:58:14.228Z,934.82
2022-11-22T02:59:14.172Z,934.85
2022-11-22T03:00:14.171Z,934.85
2022-11-22T03:01:14.269Z,934.85
2022-11-22T03:02:14.160Z,934.88
2022-11-22T03:03:14.131Z,934.87
2022-11-22T03:04:14.121Z,934.86
2022-11-22T03:05:14.127Z,934.90
2022-11-22T03:06:14.094Z,934.88
2022-11-22T03:07:14.117Z,934.91
2022-11-22T03:08:14.102Z,934.88
2022-11-22T03:09:14.056Z,934.92
2022-11-22T03:10:14.035Z,934.91
2022-11-22T03:11:14.013Z,934.91
2022-11-22T03:12:14.067Z,934.90
2022-11-22T03:13:13.995Z,934.94
2022-11-22T03:14:14.013Z,934.91
2022-11-22T03:15:13.965Z,934.92
2022-11-22T03:16:13.975Z,934.89
2022-11-22T03:17:13.936Z,934.89
2022-11-22T03:18:13.966Z,934.88
2022-11-22T03:19:13.906Z,934.90
2022-11-22T03:20:13.910Z,934.91
2022-11-22T03:21:13.902Z,934.93
2022-11-22T03:22:13.896Z,934.88
2022-11-22T03:23:13.875Z,934.91
2022-11-22T03:24:13.851Z,934.89
2022-11-22T03:25:13.857Z,934.94
2022-11-22T03:26:13.824Z,934.92
2022-11-22T03:27:13.849Z,934.93
2022-11-22T03:28:13.796Z,934.90
2022-11-22T03:29:13.817Z,934.90
2022-11-22T03:30:13.768Z,934.87
2022-11-22T03:31:13.765Z,934.84
2022-11-22T03:32:13.793Z,934.88
2022-11-22T03:33:13.767Z,934.88
2022-11-22T03:34:13.720Z,934.89
2022-11-22T03:35:13.711Z,934.92
2022-11-22T03:36:13.691Z,934.91
2022-11-22T03:37:13.717Z,934.92
2022-11-22T03:38:13.688Z,934.92
2022-11-22T03:39:13.663Z,934.94
2022-11-22T03:40:13.662Z,934.93
2022-11-22T03:41:13.719Z,934.98
2022-11-22T03:42:18.188Z,934.93
2022-11-22T03:43:13.623Z,934.97
2022-11-22T03:44:13.587Z,934.92
2022-11-22T03:45:13.600Z,934.93
2022-11-22T03:46:13.570Z,934.90
2022-11-22T03:47:13.554Z,934.92
2022-11-22T03:48:13.554Z,934.89
2022-11-22T03:49:13.527Z,934.90
2022-11-22T03:50:13.536Z,934.86
2022-11-22T03:51:13.507Z,934.85
2022-11-22T03:52:13.481Z,934.86
2022-11-22T03:53:13.491Z,934.83
2022-11-22T03:54:13.456Z,934.86
2022-11-22T03:55:13.453Z,934.83
2022-11-22T03:56:13.448Z,934.80
2022-11-22T03:57:13.426Z,934.85
2022-11-22T03:58:13.399Z,934.82
2022-11-22T03:59:13.393Z,934.87
2022-11-22T04:00:13.380Z,934.89
2022-11-22T04:01:16.511Z,934.89
2022-11-22T04:02:13.417Z,934.89
2022-11-22T04:03:13.347Z,934.90
2022-11-22T04:04:13.327Z,934.90
2022-11-22T04:05:13.320Z,934.91
2022-11-22T04:06:13.329Z,934.93
2022-11-22T04:07:13.316Z,934.91
2022-11-22T04:08:13.280Z,934.96
2022-11-22T04:09:13.350Z,934.94
2022-11-22T04:10:16.378Z,934.95
2022-11-22T04:11:13.245Z,934.99
2022-11-22T04:12:13.214Z,934.97
2022-11-22T04:13:13.247Z,934.96
2022-11-22T04:14:13.190Z,934.97
2022-11-22T04:15:13.211Z,934.97
2022-11-22T04:16:13.189Z,934.97
2022-11-22T04:17:13.162Z,934.97
2022-11-22T04:18:13.167Z,934.94
2022-11-22T04:19:13.134Z,934.94
2022-11-22T04:20:13.107Z,934.96
2022-11-22T04:21:13.101Z,934.95
2022-11-22T04:22:13.108Z,934.99
2022-11-22T04:23:13.082Z,935.03
2022-11-22T04:24:13.057Z,935.01
2022-11-22T04:25:13.058Z,935.04
2022-11-22T04:26:13.068Z,935.05
2022-11-22T04:27:13.053Z,935.03
2022-11-22T04:28:13.013Z,935.04
2022-11-22T04:29:13.009Z,935.02
2022-11-22T04:30:18.909Z,934.97
2022-11-22T04:31:12.977Z,934.99
2022-11-22T04:32:12.951Z,934.95
2022-11-22T04:33:12.978Z,934.95
2022-11-22T04:34:12.931Z,934.96
2022-11-22T04:35:13.011Z,934.97
2022-11-22T04:36:13.557Z,934.99
2022-11-22T04:37:12.905Z,934.97
2022-11-22T04:38:12.878Z,935.00
2022-11-22T04:39:12.911Z,934.98
2022-11-22T04:40:12.885Z,934.97
2022-11-22T04:41:12.853Z,935.02
2022-11-22T04:42:12.833Z,935.08
2022-11-22T04:43:12.854Z,935.05
2022-11-22T04:44:12.954Z,935.07
2022-11-22T04:45:12.863Z,935.12
2022-11-22T04:46:12.802Z,935.07
2022-11-22T04:47:12.774Z,935.09
2022-11-22T04:48:12.755Z,935.17
2022-11-22T04:49:12.743Z,935.18
2022-11-22T04:50:12.714Z,935.24
2022-11-22T04:51:12.747Z,935.18
2022-11-22T04:52:12.691Z,935.26
2022-11-22T04:53:12.720Z,935.25
2022-11-22T04:54:12.666Z,935.29
2022-11-22T04:55:12.669Z,935.34
2022-11-22T04:56:12.636Z,935.40
2022-11-22T04:57:12.634Z,935.45
2022-11-22T04:58:12.652Z,935.42
2022-11-22T04:59:12.609Z,935.45
2022-11-22T05:00:12.616Z,935.44
2022-11-22T05:01:12.745Z,935.44
2022-11-22T05:02:12.564Z,935.43
2022-11-22T05:03:12.556Z,935.43
2022-11-22T05:04:12.576Z,935.43
2022-11-22T05:05:12.561Z,935.42
2022-11-22T05:06:12.527Z,935.44
2022-11-22T05:07:12.561Z,935.46
2022-11-22T05:08:12.497Z,935.41
2022-11-22T05:09:12.484Z,935.44
2022-11-22T05:10:12.484Z,935.45
2022-11-22T05:11:12.462Z,935.41
2022-11-22T05:12:12.430Z,935.42
2022-11-22T05:13:12.417Z,935.43
2022-11-22T05:14:12.402Z,935.48
2022-11-22T05:15:12.438Z,935.49
2022-11-22T05:16:12.396Z,935.50
2022-11-22T05:17:13.688Z,935.52
2022-11-22T05:18:12.354Z,935.56
2022-11-22T05:19:12.347Z,935.54
2022-11-22T05:20:12.315Z,935.57
2022-11-22T05:21:12.382Z,935.58
2022-11-22T05:22:12.306Z,935.60
2022-11-22T05:23:12.304Z,935.60
2022-11-22T05:24:12.274Z,935.61
2022-11-22T05:25:12.299Z,935.62
2022-11-22T05:26:12.255Z,935.61
2022-11-22T05:27:12.243Z,935.56
2022-11-22T05:28:12.224Z,935.59
2022-11-22T05:29:12.250Z,935.62
2022-11-22T05:30:12.203Z,935.62
2022-11-22T05:31:12.217Z,935.63
2022-11-22T05:32:12.169Z,935.66
2022-11-22T05:33:12.167Z,935.68
2022-11-22T05:34:12.145Z,935.67
2022-11-22T05:35:12.144Z,935.68
2022-11-22T05:36:12.146Z,935.67
2022-11-22T05:37:12.115Z,935.69
2022-11-22T05:38:12.114Z,935.66
2022-11-22T05:39:12.097Z,935.65
2022-11-22T05:40:12.068Z,935.69
2022-11-22T05:41:12.065Z,935.64
2022-11-22T05:42:12.072Z,935.65
2022-11-22T05:43:12.028Z,935.69
2022-11-22T05:44:12.015Z,935.66
2022-11-22T05:45:12.008Z,935.65
2022-11-22T05:46:11.996Z,935.62
2022-11-22T05:47:12.022Z,935.64
2022-11-22T05:48:11.955Z,935.65
2022-11-22T05:49:11.967Z,935.62
2022-11-22T05:50:11.933Z,935.64
2022-11-22T05:51:11.942Z,935.67
2022-11-22T05:52:11.942Z,935.69
2022-11-22T05:53:11.908Z,935.68
2022-11-22T05:54:11.883Z,935.66
2022-11-22T05:55:11.885Z,935.66
2022-11-22T05:56:11.862Z,935.67
2022-11-22T05:57:11.852Z,935.67
2022-11-22T05:58:11.864Z,935.70
2022-11-22T05:59:11.823Z,935.70
2022-11-22T06:00:11.812Z,935.72
2022-11-22T06:01:11.791Z,935.68
2022-11-22T06:02:11.817Z,935.68
2022-11-22T06:03:11.808Z,935.66
2022-11-22T06:04:11.754Z,935.66
2022-11-22T06:05:11.780Z,935.61
2022-11-22T06:06:11.724Z,935.67
2022-11-22T06:07:11.800Z,935.66
2022-11-22T06:08:11.694Z,935.64
2022-11-22T06:09:11.728Z,935.68
2022-11-22T06:10:11.664Z,935.63
2022-11-22T06:11:11.667Z,935.65
2022-11-22T06:12:11.668Z,935.67
2022-11-22T06:13:11.646Z,935.67
2022-11-22T06:14:11.633Z,935.65
2022-11-22T06:15:11.652Z,935.66
2022-11-22T06:16:11.596Z,935.61
2022-11-22T06:17:11.622Z,935.57
2022-11-22T06:18:11.571Z,935.59
2022-11-22T06:19:11.568Z,935.61
2022-11-22T06:20:11.542Z,935.66
2022-11-22T06:21:11.537Z,935.62
2022-11-22T06:22:11.546Z,935.63
2022-11-22T06:23:11.511Z,935.65
2022-11-22T06:24:11.506Z,935.67
2022-11-22T06:25:11.559Z,935.69
2022-11-22T06:26:11.466Z,935.66
2022-11-22T06:27:11.486Z,935.67
2022-11-22T06:28:11.445Z,935.65
2022-11-22T06:29:11.454Z,935.65
2022-11-22T06:30:11.414Z,935.64
2022-11-22T06:31:11.412Z,935.67
2022-11-22T06:32:11.378Z,935.71
2022-11-22T06:33:11.392Z,935.73
2022-11-22T06:34:11.442Z,935.75
2022-11-22T06:35:11.362Z,935.75
2022-11-22T06:36:11.338Z,935.76
2022-11-22T06:37:11.334Z,935.76
2022-11-22T06:38:11.314Z,935.77
2022-11-22T06:39:11.343Z,935.77
2022-11-22T06:40:11.285Z,935.81
2022-11-22T06:41:11.275Z,935.80
2022-11-22T06:42:11.254Z,935.80
2022-11-22T06:43:11.267Z,935.79
2022-11-22T06:44:11.232Z,935.78
2022-11-22T06:45:11.225Z,935.82
2022-11-22T06:46:11.206Z,935.83
2022-11-22T06:47:11.204Z,935.84
2022-11-22T06:48:11.193Z,935.90
2022-11-22T06:49:11.211Z,935.88
2022-11-22T06:50:11.152Z,935.92
2022-11-22T06:51:11.175Z,935.90
2022-11-22T06:52:11.123Z,935.91
2022-11-22T06:53:32.449Z,935.88
2022-11-22T06:54:11.146Z,935.93
2022-11-22T06:55:34.484Z,935.96
2022-11-22T06:56:11.079Z,935.98
2022-11-22T06:57:11.063Z,935.96
2022-11-22T06:58:11.045Z,936.01
2022-11-22T06:59:11.058Z,935.97
2022-11-22T07:00:11.041Z,935.99
2022-11-22T07:01:11.087Z,936.01
2022-11-22T07:02:11.011Z,936.05
2022-11-22T07:03:10.989Z,936.10
2022-11-22T07:04:10.978Z,936.10
2022-11-22T07:05:25.154Z,936.15
2022-11-22T07:06:10.994Z,936.14
2022-11-22T07:07:10.993Z,936.13
2022-11-22T07:08:13.968Z,936.19
2022-11-22T07:09:10.910Z,936.19
2022-11-22T07:10:10.917Z,936.23
2022-11-22T07:11:10.909Z,936.24
2022-11-22T07:12:10.857Z,936.24
2022-11-22T07:13:10.858Z,936.25
2022-11-22T07:14:10.841Z,936.26
2022-11-22T07:15:10.870Z,936.28
2022-11-22T07:16:10.810Z,936.32
2022-11-22T07:17:10.828Z,936.33
2022-11-22T07:18:10.785Z,936.37
2022-11-22T07:19:10.786Z,936.36
2022-11-22T07:20:10.784Z,936.38
2022-11-22T07:21:13.196Z,936.36
2022-11-22T07:22:10.733Z,936.45
2022-11-22T07:23:10.724Z,936.49
2022-11-22T07:24:10.723Z,936.52
2022-11-22T07:25:10.695Z,936.50
2022-11-22T07:26:10.700Z,936.54
2022-11-22T07:27:10.701Z,936.55
2022-11-22T07:28:10.671Z,936.58
2022-11-22T07:29:10.650Z,936.56
2022-11-22T07:30:10.661Z,936.62
2022-11-22T07:31:10.613Z,936.58
2022-11-22T07:32:10.640Z,936.59
2022-11-22T07:33:10.583Z,936.60
2022-11-22T07:34:10.581Z,936.65
2022-11-22T07:35:10.553Z,936.66
2022-11-22T07:36:10.570Z,936.68
2022-11-22T07:37:10.557Z,936.67
2022-11-22T07:38:10.526Z,936.67
2022-11-22T07:39:10.507Z,936.68
2022-11-22T07:40:10.507Z,936.62
2022-11-22T07:41:10.504Z,936.66
2022-11-22T07:42:10.476Z,936.65
2022-11-22T07:43:10.462Z,936.65
2022-11-22T07:44:10.443Z,936.66
2022-11-22T07:45:10.423Z,936.68
2022-11-22T07:46:10.462Z,936.69
2022-11-22T07:47:10.396Z,936.72
2022-11-22T07:48:10.403Z,936.75
2022-11-22T07:49:10.371Z,936.81
2022-11-22T07:50:10.376Z,936.77
2022-11-22T07:51:10.425Z,936.80
2022-11-22T07:52:10.379Z,936.80
2022-11-22T07:53:10.326Z,936.86
2022-11-22T07:54:10.344Z,936.88
2022-11-22T07:55:14.113Z,936.95
2022-11-22T07:56:10.295Z,936.92
2022-11-22T07:57:10.304Z,936.95
2022-11-22T07:58:10.264Z,936.96
2022-11-22T07:59:10.252Z,936.98
2022-11-22T08:00:10.237Z,937.01
2022-11-22T08:01:10.371Z,937.05
2022-11-22T08:02:10.318Z,937.06
2022-11-22T08:03:13.134Z,937.08
2022-11-22T08:04:10.194Z,937.08
2022-11-22T08:05:10.164Z,937.16
2022-11-22T08:06:10.206Z,937.13
2022-11-22T08:07:10.202Z,937.15
2022-11-22T08:08:10.140Z,937.13
2022-11-22T08:09:10.109Z,937.18
2022-11-22T08:10:10.114Z,937.17
2022-11-22T08:11:10.114Z,937.17
2022-11-22T08:12:10.087Z,937.17
2022-11-22T08:13:10.059Z,937.22
2022-11-22T08:14:10.060Z,937.23
2022-11-22T08:15:10.042Z,937.24
2022-11-22T08:16:10.063Z,937.20
2022-11-22T08:17:10.018Z,937.25
2022-11-22T08:18:10.041Z,937.27
2022-11-22T08:19:09.978Z,937.24
2022-11-22T08:20:09.979Z,937.26
2022-11-22T08:21:09.964Z,937.24
2022-11-22T08:22:10.011Z,937.24
2022-11-22T08:23:09.932Z,937.27
2022-11-22T08:24:09.970Z,937.29
2022-11-22T08:25:09.911Z,937.31
2022-11-22T08:26:09.904Z,937.32
2022-11-22T08:27:09.883Z,937.33
2022-11-22T08:28:09.872Z,937.35
2022-11-22T08:29:13.937Z,937.33
2022-11-22T08:30:09.846Z,937.34
2022-11-22T08:31:09.826Z,937.34
2022-11-22T08:32:09.823Z,937.37
2022-11-22T08:33:09.825Z,937.41
2022-11-22T08:34:09.804Z,937.45
2022-11-22T08:35:09.770Z,937.44
2022-11-22T08:36:09.795Z,937.45
2022-11-22T08:37:09.737Z,937.48
2022-11-22T08:38:09.734Z,937.47
2022-11-22T08:39:09.710Z,937.47
2022-11-22T08:40:09.741Z,937.46
2022-11-22T08:41:09.711Z,937.46
2022-11-22T08:42:09.681Z,937.48
2022-11-22T08:43:09.663Z,937.56
2022-11-22T08:44:09.670Z,937.59
2022-11-22T08:45:09.669Z,937.60
2022-11-22T08:46:09.654Z,937.57
2022-11-22T08:47:09.611Z,937.57
2022-11-22T08:48:09.615Z,937.57
2022-11-22T08:49:09.583Z,937.54
2022-11-22T08:50:09.593Z,937.55
2022-11-22T08:51:09.591Z,937.54
2022-11-22T08:52:09.559Z,937.57
2022-11-22T08:53:09.553Z,937.57
2022-11-22T08:54:09.575Z,937.60
2022-11-22T08:55:09.499Z,937.62
2022-11-22T08:56:09.541Z,937.65
2022-11-22T08:57:09.512Z,937.68
2022-11-22T08:58:09.518Z,937.65
2022-11-22T08:59:09.487Z,937.66
2022-11-22T09:00:09.450Z,937.64
2022-11-22T09:01:09.494Z,937.63
2022-11-22T09:02:09.466Z,937.64
2022-11-22T09:03:09.404Z,937.68
2022-11-22T09:04:09.403Z,937.66
2022-11-22T09:05:09.371Z,937.66
2022-11-22T09:08:24.766Z,937.68
2022-11-22T09:09:35.894Z,937.68
2022-11-22T09:10:09.324Z,937.69
2022-11-22T09:11:09.326Z,937.70
2022-11-22T09:12:09.323Z,937.70
2022-11-22T09:13:09.273Z,937.69
2022-11-22T09:14:09.273Z,937.68
2022-11-22T09:15:09.248Z,937.69
2022-11-22T09:16:09.264Z,937.75
2022-11-22T09:17:13.177Z,937.74
2022-11-22T09:18:09.222Z,937.74
2022-11-22T09:19:09.217Z,937.73
2022-11-22T09:20:09.188Z,937.77
2022-11-22T09:21:09.160Z,937.75
2022-11-22T09:22:09.185Z,937.81
2022-11-22T09:23:09.157Z,937.83
2022-11-22T09:24:09.163Z,937.85
2022-11-22T09:25:09.113Z,937.85
2022-11-22T09:26:09.121Z,937.86
2022-11-22T09:27:09.085Z,937.89
2022-11-22T09:28:09.114Z,937.85
2022-11-22T09:29:09.095Z,937.87
2022-11-22T09:30:09.063Z,937.85
2022-11-22T09:31:09.039Z,937.89
2022-11-22T09:32:09.038Z,937.88
2022-11-22T09:33:09.041Z,937.91
2022-11-22T09:34:08.999Z,937.92
2022-11-22T09:35:08.984Z,937.94
2022-11-22T09:36:08.977Z,937.94
2022-11-22T09:37:08.978Z,937.94
2022-11-22T09:38:08.957Z,937.93
2022-11-22T09:39:08.977Z,937.94
2022-11-22T09:40:08.953Z,937.94
2022-11-22T09:41:08.925Z,937.92
2022-11-22T09:42:08.934Z,937.91
2022-11-22T09:43:08.874Z,937.93
2022-11-22T09:44:08.873Z,937.95
2022-11-22T09:45:08.859Z,937.94
2022-11-22T09:46:08.846Z,937.98
2022-11-22T09:47:08.854Z,938.00
2022-11-22T09:48:10.122Z,938.02
2022-11-22T09:49:08.809Z,938.04
2022-11-22T09:50:08.800Z,938.03
2022-11-22T09:51:08.774Z,938.02
2022-11-22T09:52:08.786Z,938.07
2022-11-22T09:53:08.746Z,938.04
2022-11-22T09:54:08.749Z,938.06
2022-11-22T09:55:08.720Z,938.01
2022-11-22T09:56:08.715Z,938.04
2022-11-22T09:57:08.720Z,938.02
2022-11-22T09:58:08.716Z,938.05
2022-11-22T09:59:08.682Z,938.04
2022-11-22T10:00:08.672Z,938.04
2022-11-22T10:01:08.720Z,938.01
2022-11-22T10:02:18.090Z,938.02
2022-11-22T10:03:08.617Z,937.99
2022-11-22T10:04:08.618Z,938.00
2022-11-22T10:05:08.607Z,937.98
2022-11-22T10:06:08.605Z,937.95
2022-11-22T10:07:08.602Z,937.91
2022-11-22T10:08:08.546Z,937.96
2022-11-22T10:09:08.537Z,937.98
2022-11-22T10:10:08.530Z,938.00
2022-11-22T10:11:08.511Z,937.96
2022-11-22T10:12:08.535Z,937.95
2022-11-22T10:13:08.472Z,937.97
2022-11-22T10:14:08.506Z,937.98
2022-11-22T10:15:08.453Z,938.00
2022-11-22T10:16:08.444Z,937.95
2022-11-22T10:17:08.465Z,937.97
2022-11-22T10:18:08.473Z,937.95
2022-11-22T10:19:08.411Z,937.98
2022-11-22T10:20:08.420Z,937.96
2022-11-22T10:21:08.425Z,937.95
2022-11-22T10:22:08.373Z,937.99
2022-11-22T10:23:08.347Z,937.98
2022-11-22T10:24:08.338Z,937.98
2022-11-22T10:25:08.346Z,937.99
2022-11-22T10:26:08.354Z,938.00
2022-11-22T10:27:08.299Z,938.04
2022-11-22T10:28:08.304Z,938.03
2022-11-22T10:29:08.272Z,938.03
2022-11-22T10:30:08.266Z,938.03
2022-11-22T10:31:08.276Z,938.05
2022-11-22T10:32:08.254Z,938.05
2022-11-22T10:33:08.217Z,938.07
2022-11-22T10:34:08.207Z,938.08
2022-11-22T10:35:08.229Z,938.10
2022-11-22T10:36:08.199Z,938.15
2022-11-22T10:37:08.168Z,938.17
2022-11-22T10:38:08.167Z,938.17
2022-11-22T10:39:08.170Z,938.20
2022-11-22T10:40:08.136Z,938.19
2022-11-22T10:41:08.118Z,938.17
2022-11-22T10:42:08.158Z,938.16
2022-11-22T10:43:08.088Z,938.21
2022-11-22T10:44:08.104Z,938.21
2022-11-22T10:45:08.164Z,938.24
2022-11-22T10:46:08.055Z,938.24
2022-11-22T10:47:08.046Z,938.27
2022-11-22T10:48:08.081Z,938.25
2022-11-22T10:49:08.008Z,938.25
2022-11-22T10:50:08.009Z,938.24
2022-11-22T10:51:07.996Z,938.23
2022-11-22T10:52:07.975Z,938.22
2022-11-22T10:53:07.985Z,938.22
2022-11-22T10:54:07.959Z,938.20
2022-11-22T10:55:07.929Z,938.20
2022-11-22T10:56:07.927Z,938.17
2022-11-22T10:57:07.907Z,938.22
2022-11-22T10:58:07.941Z,938.20
2022-11-22T10:59:07.900Z,938.19
2022-11-22T11:00:07.873Z,938.19
2022-11-22T11:01:07.971Z,938.20
2022-11-22T11:02:07.845Z,938.15
2022-11-22T11:03:07.816Z,938.17
2022-11-22T11:04:07.844Z,938.16
2022-11-22T11:05:07.802Z,938.16
2022-11-22T11:06:24.094Z,938.17
2022-11-22T11:07:12.558Z,938.13
2022-11-22T11:08:35.414Z,938.18
2022-11-22T11:10:12.984Z,938.12
2022-11-22T11:11:07.779Z,938.16
2022-11-22T11:12:07.715Z,938.13
2022-11-22T11:13:07.696Z,938.17
2022-11-22T11:14:07.731Z,938.19
2022-11-22T11:15:07.666Z,938.18
2022-11-22T11:16:07.656Z,938.22
2022-11-22T11:17:07.666Z,938.19
2022-11-22T11:18:07.626Z,938.21
2022-11-22T11:19:07.611Z,938.22
2022-11-22T11:20:07.639Z,938.21
2022-11-22T11:21:07.585Z,938.23
2022-11-22T11:22:07.582Z,938.27
2022-11-22T11:23:14.805Z,938.29
2022-11-22T11:24:07.584Z,938.32
2022-11-22T11:25:07.537Z,938.28
2022-11-22T11:26:07.528Z,938.29
2022-11-22T11:27:07.504Z,938.28
2022-11-22T11:28:07.535Z,938.35
2022-11-22T11:29:07.527Z,938.34
2022-11-22T11:30:07.482Z,938.34
2022-11-22T11:31:07.454Z,938.34
2022-11-22T11:32:07.450Z,938.31
2022-11-22T11:33:07.454Z,938.32
2022-11-22T11:34:07.426Z,938.34
2022-11-22T11:35:07.400Z,938.32
2022-11-22T11:36:07.413Z,938.34
2022-11-22T11:37:07.383Z,938.35
2022-11-22T11:38:07.391Z,938.32
2022-11-22T11:39:07.360Z,938.34
2022-11-22T11:40:07.340Z,938.31
2022-11-22T11:41:07.344Z,938.34
2022-11-22T11:42:07.352Z,938.32
2022-11-22T11:43:07.307Z,938.33
2022-11-22T11:44:07.307Z,938.32
2022-11-22T11:45:07.387Z,938.35
2022-11-22T11:46:07.295Z,938.31
2022-11-22T11:47:07.250Z,938.23
2022-11-22T11:48:07.235Z,938.25
2022-11-22T11:49:07.223Z,938.23
2022-11-22T11:50:07.211Z,938.24
2022-11-22T11:51:07.213Z,938.24
2022-11-22T11:52:07.202Z,938.25
2022-11-22T11:53:07.179Z,938.29
2022-11-22T11:54:07.156Z,938.25
2022-11-22T11:55:07.144Z,938.22
2022-11-22T11:56:07.151Z,938.20
2022-11-22T11:57:07.134Z,938.20
2022-11-22T11:58:07.099Z,938.23
2022-11-22T11:59:07.102Z,938.28
2022-11-22T12:00:07.082Z,938.28
2022-11-22T12:01:07.099Z,938.30
2022-11-22T12:02:07.085Z,938.30
2022-11-22T12:03:07.065Z,938.30
2022-11-22T12:04:07.018Z,938.27
2022-11-22T12:05:07.021Z,938.34
2022-11-22T12:06:06.992Z,938.30
2022-11-22T12:07:07.071Z,938.37
2022-11-22T12:08:06.991Z,938.32
2022-11-22T12:09:06.969Z,938.30
2022-11-22T12:10:06.942Z,938.25
2022-11-22T12:11:06.944Z,938.28
2022-11-22T12:12:06.918Z,938.22
2022-11-22T12:13:06.939Z,938.22
2022-11-22T12:14:22.228Z,938.17
2022-11-22T12:15:11.632Z,938.18
2022-11-22T12:16:06.873Z,938.08
2022-11-22T12:17:06.885Z,938.08
2022-11-22T12:18:06.840Z,938.11
2022-11-22T12:19:06.840Z,938.09
2022-11-22T12:20:06.843Z,938.09
2022-11-22T12:21:06.825Z,938.10
2022-11-22T12:22:06.787Z,938.09
2022-11-22T12:23:06.802Z,938.10
2022-11-22T12:24:40.977Z,938.08
2022-11-22T12:25:31.165Z,938.04
2022-11-22T12:26:06.736Z,938.04
2022-11-22T12:27:06.739Z,938.02
2022-11-22T12:28:06.711Z,937.99
2022-11-22T12:29:06.724Z,938.00
2022-11-22T12:30:06.677Z,937.95
2022-11-22T12:31:11.987Z,937.92